Time;durP1;ratioP1;P1;durP2;ratioP2;P2;SDS_P1;SDS_P2;PMS_P1;PMS_P2;Temp;Humidity;BMP_temperature;BMP_pressure;BME280_temperature;BME280_humidity;BME280_pressure;Samples;Min_cycle;Max_cycle;Signal;HPM_P1;HPM_P2
2021/12/08 00:01:35;;;;;;;;;;;4.80;89.50;;;;;;5134052;27;19931;-77
2021/12/08 00:04:03;;;;;;;;;;;4.80;89.30;;;;;;5119822;27;19930;-77
2021/12/08 00:06:31;;;;;;;;;;;4.80;89.30;;;;;;5143226;27;19934;-77
2021/12/08 00:09:16;;;;;;;;;;;4.80;89.10;;;;;;5147219;27;20288;-77
2021/12/08 00:14:30;;;;;;;;;;;4.80;88.40;;;;;;5140934;27;20391;-77
2021/12/08 00:16:58;;;;;;;;;;;4.80;88.20;;;;;;5136897;27;19923;-77
2021/12/08 00:19:27;;;;;;;;;;;4.80;88.10;;;;;;5140222;27;19928;-77
2021/12/08 00:21:55;;;;;;;;;;;4.80;87.90;;;;;;5135327;27;20299;-76
2021/12/08 00:24:23;;;;;;;;;;;4.80;87.70;;;;;;5118845;27;19930;-77
2021/12/08 00:26:51;;;;;;;;;;;4.90;87.20;;;;;;5144711;27;19923;-76
2021/12/08 00:29:18;;;;;;;;;;;4.90;86.90;;;;;;5120692;27;19923;-77
2021/12/08 00:31:47;;;;;;;;;;;5.00;86.60;;;;;;5143813;27;19946;-77
2021/12/08 00:34:14;;;;;;;;;;;5.00;86.60;;;;;;5105510;27;19923;-78
2021/12/08 00:36:45;;;;;;;;;;;5.00;86.60;;;;;;5139330;27;19927;-77
2021/12/08 00:39:14;;;;;;;;;;;5.00;86.90;;;;;;5127848;27;20299;-78
2021/12/08 00:41:44;;;;;;;;;;;5.00;86.90;;;;;;5120545;27;19942;-78
2021/12/08 00:44:11;;;;;;;;;;;5.00;86.80;;;;;;5146777;27;19923;-78
2021/12/08 00:46:39;;;;;;;;;;;5.00;86.90;;;;;;5150624;27;20293;-78
2021/12/08 00:49:07;;;;;;;;;;;4.90;86.80;;;;;;5150430;27;20030;-78
2021/12/08 00:51:35;;;;;;;;;;;5.00;86.90;;;;;;5125255;27;19930;-78
2021/12/08 00:54:03;;;;;;;;;;;4.90;86.80;;;;;;5145183;27;19938;-78
2021/12/08 00:56:30;;;;;;;;;;;5.00;86.70;;;;;;5143141;27;19923;-77
2021/12/08 00:58:57;;;;;;;;;;;5.00;86.30;;;;;;5145673;27;19931;-78
2021/12/08 01:01:29;;;;;;;;;;;5.00;86.50;;;;;;5142934;27;19927;-78
2021/12/08 01:03:57;;;;;;;;;;;5.00;86.50;;;;;;5138087;27;19930;-78
2021/12/08 01:06:25;;;;;;;;;;;5.00;86.50;;;;;;5136631;27;20541;-78
2021/12/08 01:08:52;;;;;;;;;;;4.90;86.70;;;;;;5144262;27;19934;-78
2021/12/08 01:11:20;;;;;;;;;;;5.00;86.60;;;;;;5133570;27;20415;-78
2021/12/08 01:13:47;;;;;;;;;;;5.00;86.70;;;;;;5135227;27;19923;-78
2021/12/08 01:16:16;;;;;;;;;;;5.00;86.60;;;;;;5140197;27;19927;-77
2021/12/08 01:18:44;;;;;;;;;;;5.00;86.30;;;;;;5140696;27;19923;-78
2021/12/08 01:21:11;;;;;;;;;;;5.00;86.40;;;;;;5133191;27;20260;-78
2021/12/08 01:23:40;;;;;;;;;;;5.00;86.50;;;;;;5139817;27;19923;-78
2021/12/08 01:26:08;;;;;;;;;;;4.90;87.00;;;;;;5151234;27;19927;-78
2021/12/08 01:28:36;;;;;;;;;;;4.80;87.40;;;;;;5143936;27;19923;-78
2021/12/08 01:31:05;;;;;;;;;;;4.90;87.50;;;;;;5154563;27;19934;-78
2021/12/08 01:33:34;;;;;;;;;;;4.80;87.80;;;;;;5153354;27;19934;-77
2021/12/08 01:36:04;;;;;;;;;;;4.80;88.00;;;;;;5130512;27;19930;-78
2021/12/08 01:38:32;;;;;;;;;;;4.70;88.20;;;;;;5153413;27;19930;-78
2021/12/08 01:41:00;;;;;;;;;;;4.80;88.40;;;;;;5146988;27;19923;-78
2021/12/08 01:43:29;;;;;;;;;;;4.70;88.40;;;;;;5140601;27;19923;-77
2021/12/08 01:46:05;;;;;;;;;;;4.80;88.60;;;;;;5125904;27;19930;-76
2021/12/08 01:48:34;;;;;;;;;;;4.80;88.50;;;;;;5122618;27;19934;-76
2021/12/08 01:51:09;;;;;;;;;;;4.70;88.60;;;;;;5141904;27;19938;-76
2021/12/08 01:53:40;;;;;;;;;;;4.70;88.80;;;;;;5126222;27;19938;-76
2021/12/08 01:56:09;;;;;;;;;;;4.70;88.90;;;;;;5145841;27;20399;-77
2021/12/08 01:58:37;;;;;;;;;;;4.70;88.80;;;;;;5125260;27;19935;-76
2021/12/08 02:01:06;;;;;;;;;;;4.70;88.30;;;;;;5142363;27;19923;-76
2021/12/08 02:03:34;;;;;;;;;;;4.60;88.10;;;;;;5142100;27;19931;-77
2021/12/08 02:06:05;;;;;;;;;;;4.60;88.00;;;;;;5116441;27;19931;-76
2021/12/08 02:08:33;;;;;;;;;;;4.50;87.90;;;;;;5109673;27;19934;-76
2021/12/08 02:11:02;;;;;;;;;;;4.40;87.90;;;;;;5137531;27;19923;-76
2021/12/08 02:13:36;;;;;;;;;;;4.40;88.00;;;;;;5116818;27;19973;-78
2021/12/08 02:16:07;;;;;;;;;;;4.30;88.30;;;;;;5149591;27;19931;-78
2021/12/08 02:18:36;;;;;;;;;;;4.30;88.50;;;;;;5143885;27;19935;-77
2021/12/08 02:21:04;;;;;;;;;;;4.20;88.70;;;;;;5133631;27;19923;-78
2021/12/08 02:23:32;;;;;;;;;;;4.20;89.00;;;;;;5115308;27;19934;-78
2021/12/08 02:26:00;;;;;;;;;;;4.10;89.20;;;;;;5116215;27;19924;-77
2021/12/08 02:28:27;;;;;;;;;;;4.00;89.30;;;;;;5134131;27;19928;-77
2021/12/08 02:31:02;;;;;;;;;;;3.90;89.00;;;;;;5133925;27;19923;-77
2021/12/08 02:47:44;;;;;;;;;;;3.60;90.40;;;;;;5132778;27;19927;-76
2021/12/08 02:50:12;;;;;;;;;;;3.60;90.70;;;;;;5143203;27;20307;-76
2021/12/08 02:52:39;;;;;;;;;;;3.50;90.90;;;;;;5132523;27;19923;-77
2021/12/08 02:55:07;;;;;;;;;;;3.50;91.20;;;;;;5116135;27;19943;-76
2021/12/08 02:57:35;;;;;;;;;;;3.50;91.20;;;;;;5122917;27;19930;-76
2021/12/08 03:00:05;;;;;;;;;;;3.60;91.20;;;;;;5124233;27;19935;-76
2021/12/08 03:02:32;;;;;;;;;;;3.60;91.30;;;;;;5130619;27;19972;-76
2021/12/08 03:05:00;;;;;;;;;;;3.70;91.30;;;;;;5116076;27;19924;-76
2021/12/08 03:07:28;;;;;;;;;;;3.70;91.40;;;;;;5112669;27;20369;-76
2021/12/08 03:10:00;;;;;;;;;;;3.70;91.40;;;;;;5120197;28;19927;-76
2021/12/08 03:12:28;;;;;;;;;;;3.70;91.40;;;;;;5125113;27;19923;-76
2021/12/08 03:14:56;;;;;;;;;;;3.80;91.50;;;;;;5123721;28;20037;-76
2021/12/08 03:17:23;;;;;;;;;;;3.80;91.50;;;;;;5121743;28;20327;-77
2021/12/08 03:19:51;;;;;;;;;;;3.70;91.60;;;;;;5116281;28;19930;-78
2021/12/08 03:22:19;;;;;;;;;;;3.80;91.70;;;;;;5112462;28;19928;-75
2021/12/08 03:24:48;;;;;;;;;;;3.80;91.80;;;;;;5123338;28;19934;-75
2021/12/08 03:27:19;;;;;;;;;;;3.80;91.70;;;;;;5127915;28;19934;-77
2021/12/08 03:32:30;;;;;;;;;;;3.80;91.70;;;;;;5118080;28;19931;-78
2021/12/08 03:34:57;;;;;;;;;;;3.80;91.70;;;;;;5113659;28;19924;-78
2021/12/08 03:37:27;;;;;;;;;;;3.80;91.70;;;;;;5113982;28;19931;-77
2021/12/08 03:39:56;;;;;;;;;;;3.90;91.70;;;;;;5114035;28;19931;-78
2021/12/08 03:42:26;;;;;;;;;;;4.00;91.70;;;;;;5118023;28;19942;-78
2021/12/08 03:44:56;;;;;;;;;;;4.00;91.70;;;;;;5121927;28;20006;-77
2021/12/08 03:47:29;;;;;;;;;;;4.00;91.60;;;;;;5126360;28;20294;-78
2021/12/08 03:49:58;;;;;;;;;;;4.10;91.10;;;;;;5125682;27;20001;-78
2021/12/08 03:52:26;;;;;;;;;;;4.20;90.80;;;;;;5109936;27;19930;-78
2021/12/08 03:54:53;;;;;;;;;;;4.20;90.60;;;;;;5135382;27;19927;-77
2021/12/08 03:57:20;;;;;;;;;;;4.30;90.40;;;;;;5138171;27;20376;-76
2021/12/08 03:59:48;;;;;;;;;;;4.30;90.30;;;;;;5117828;27;19937;-78
2021/12/08 04:02:15;;;;;;;;;;;4.30;89.90;;;;;;5135604;27;19938;-76
2021/12/08 04:04:47;;;;;;;;;;;4.40;89.70;;;;;;5144266;27;19927;-76
2021/12/08 04:07:16;;;;;;;;;;;4.50;89.40;;;;;;5154380;27;19988;-77
2021/12/08 04:09:45;;;;;;;;;;;4.50;89.10;;;;;;5138294;27;19931;-84
2021/12/08 04:12:15;;;;;;;;;;;4.60;88.80;;;;;;5128983;27;20419;-77
2021/12/08 04:14:46;;;;;;;;;;;4.60;88.60;;;;;;5145681;27;19934;-84
2021/12/08 04:17:18;;;;;;;;;;;4.60;88.40;;;;;;5143014;27;19938;-81
2021/12/08 04:19:47;;;;;;;;;;;4.70;88.00;;;;;;5115370;27;19927;-80
2021/12/08 04:22:17;;;;;;;;;;;4.70;88.00;;;;;;5121737;27;19958;-82
2021/12/08 04:24:47;;;;;;;;;;;4.80;87.60;;;;;;5140609;27;19930;-77
2021/12/08 04:27:18;;;;;;;;;;;4.80;87.40;;;;;;5117432;27;20384;-77
2021/12/08 04:29:46;;;;;;;;;;;4.80;87.30;;;;;;5117376;27;19924;-77
2021/12/08 04:32:16;;;;;;;;;;;4.90;87.20;;;;;;5137237;27;20396;-77
2021/12/08 04:34:46;;;;;;;;;;;4.80;87.40;;;;;;5139130;27;19935;-78
2021/12/08 04:37:20;;;;;;;;;;;4.80;87.40;;;;;;5123128;27;19927;-77
2021/12/08 04:39:53;;;;;;;;;;;4.90;87.10;;;;;;5144916;27;19953;-78
2021/12/08 04:42:34;;;;;;;;;;;4.90;87.00;;;;;;5125715;27;19923;-78
2021/12/08 04:45:10;;;;;;;;;;;4.90;87.00;;;;;;5139770;27;19923;-78
2021/12/08 04:47:53;;;;;;;;;;;4.80;86.90;;;;;;5143870;27;19924;-78
2021/12/08 04:50:37;;;;;;;;;;;4.80;87.00;;;;;;5144510;27;19934;-78
2021/12/08 04:53:31;;;;;;;;;;;4.80;86.90;;;;;;5142395;27;20287;-78
2021/12/08 05:09:13;;;;;;;;;;;4.70;86.60;;;;;;5143990;27;19942;-79
2021/12/08 05:11:43;;;;;;;;;;;4.80;86.60;;;;;;5126010;27;19935;-78
2021/12/08 05:14:19;;;;;;;;;;;4.80;86.40;;;;;;5140134;27;19930;-79
2021/12/08 05:16:49;;;;;;;;;;;4.80;86.50;;;;;;5143103;27;20384;-78
2021/12/08 05:19:17;;;;;;;;;;;4.80;86.40;;;;;;5124740;27;19923;-79
2021/12/08 05:21:50;;;;;;;;;;;4.70;86.70;;;;;;5124370;27;19931;-81
2021/12/08 05:24:27;;;;;;;;;;;4.70;86.60;;;;;;5147106;27;19931;-82
2021/12/08 05:26:58;;;;;;;;;;;4.60;86.90;;;;;;5136717;27;19931;-81
2021/12/08 05:29:27;;;;;;;;;;;4.60;86.70;;;;;;5140493;27;19923;-80
2021/12/08 05:31:57;;;;;;;;;;;4.60;86.80;;;;;;5137066;27;19931;-79
2021/12/08 05:34:25;;;;;;;;;;;4.50;87.00;;;;;;5136749;27;19924;-79
2021/12/08 05:36:54;;;;;;;;;;;4.40;87.00;;;;;;5152033;27;19923;-79
2021/12/08 05:39:23;;;;;;;;;;;4.40;87.40;;;;;;5135282;27;19937;-76
2021/12/08 05:41:53;;;;;;;;;;;4.30;87.60;;;;;;5138099;27;19943;-75
2021/12/08 05:44:21;;;;;;;;;;;4.30;87.90;;;;;;5135890;27;19923;-75
2021/12/08 05:46:50;;;;;;;;;;;4.10;88.40;;;;;;5148769;27;19930;-75
2021/12/08 05:49:22;;;;;;;;;;;4.00;89.10;;;;;;5135516;27;19924;-75
2021/12/08 05:51:51;;;;;;;;;;;4.00;89.40;;;;;;5135928;27;19935;-75
2021/12/08 05:54:21;;;;;;;;;;;3.90;89.70;;;;;;5123129;27;20376;-75
2021/12/08 05:56:49;;;;;;;;;;;3.90;89.80;;;;;;5143855;27;20292;-75
2021/12/08 05:59:17;;;;;;;;;;;3.80;89.70;;;;;;5120930;27;19930;-76
2021/12/08 06:01:51;;;;;;;;;;;3.70;90.10;;;;;;5143705;27;20364;-75
2021/12/08 06:04:19;;;;;;;;;;;3.70;90.10;;;;;;5138640;27;20399;-76
2021/12/08 06:06:47;;;;;;;;;;;3.60;90.50;;;;;;5131921;27;19923;-75
2021/12/08 06:09:16;;;;;;;;;;;3.50;90.50;;;;;;5133335;27;20403;-75
2021/12/08 06:11:44;;;;;;;;;;;3.60;90.60;;;;;;5148932;27;20388;-76
2021/12/08 06:14:12;;;;;;;;;;;3.50;90.70;;;;;;5115858;27;20190;-75
2021/12/08 06:16:41;;;;;;;;;;;3.50;91.00;;;;;;5133940;27;19946;-75
2021/12/08 06:19:09;;;;;;;;;;;3.40;91.20;;;;;;5134469;27;19928;-75
2021/12/08 06:21:37;;;;;;;;;;;3.40;91.30;;;;;;5116738;27;19930;-75
2021/12/08 06:24:07;;;;;;;;;;;3.40;91.30;;;;;;5140721;27;19924;-75
2021/12/08 06:26:35;;;;;;;;;;;3.40;91.30;;;;;;5133332;27;19927;-75
2021/12/08 06:29:04;;;;;;;;;;;3.40;91.20;;;;;;5147972;27;19930;-75
2021/12/08 06:31:33;;;;;;;;;;;3.30;91.20;;;;;;5148768;27;19934;-75
2021/12/08 06:34:01;;;;;;;;;;;3.30;91.30;;;;;;5137810;27;19931;-75
2021/12/08 06:36:30;;;;;;;;;;;3.30;91.30;;;;;;5137730;27;19931;-76
2021/12/08 06:38:58;;;;;;;;;;;3.30;91.40;;;;;;5150572;27;19937;-76
2021/12/08 06:41:32;;;;;;;;;;;3.20;91.40;;;;;;5138628;27;19931;-76
2021/12/08 06:44:04;;;;;;;;;;;3.30;91.60;;;;;;5147200;27;19930;-76
2021/12/08 06:46:32;;;;;;;;;;;3.20;91.60;;;;;;5117423;27;19923;-76
2021/12/08 06:49:01;;;;;;;;;;;3.20;91.60;;;;;;5138926;27;19930;-76
2021/12/08 06:51:35;;;;;;;;;;;3.20;91.70;;;;;;5133258;27;20181;-76
2021/12/08 06:54:05;;;;;;;;;;;3.20;91.80;;;;;;5135583;27;19924;-76
2021/12/08 06:56:34;;;;;;;;;;;3.20;91.80;;;;;;5142975;27;19935;-76
2021/12/08 06:59:05;;;;;;;;;;;3.30;91.80;;;;;;5116849;27;19923;-76
2021/12/08 07:01:45;;;;;;;;;;;3.30;91.90;;;;;;5143237;27;20040;-76
2021/12/08 07:04:28;;;;;;;;;;;3.30;92.00;;;;;;5146465;27;19923;-77
2021/12/08 07:07:00;;;;;;;;;;;3.30;91.90;;;;;;5133750;27;19930;-77
2021/12/08 07:09:34;;;;;;;;;;;3.30;92.10;;;;;;5138870;27;19924;-76
2021/12/08 07:12:04;;;;;;;;;;;3.30;92.20;;;;;;5139792;27;19930;-77
2021/12/08 07:14:32;;;;;;;;;;;3.40;92.20;;;;;;5115178;28;19924;-80
2021/12/08 07:17:03;;;;;;;;;;;3.50;92.20;;;;;;5134736;27;19927;-78
2021/12/08 07:19:39;;;;;;;;;;;3.50;92.30;;;;;;5132028;27;19926;-77
2021/12/08 07:22:08;;;;;;;;;;;3.50;92.30;;;;;;5149647;27;19930;-77
2021/12/08 07:24:37;;;;;;;;;;;3.50;92.40;;;;;;5153210;27;19938;-77
2021/12/08 07:27:06;;;;;;;;;;;3.60;92.40;;;;;;5132853;27;19927;-77
2021/12/08 07:29:36;;;;;;;;;;;3.60;92.50;;;;;;5130151;27;19923;-77
2021/12/08 07:32:06;;;;;;;;;;;3.70;92.60;;;;;;5140010;27;19924;-77
2021/12/08 07:34:36;;;;;;;;;;;3.70;92.60;;;;;;5151962;27;20311;-79
2021/12/08 07:37:06;;;;;;;;;;;3.80;92.60;;;;;;5120242;27;19923;-77
2021/12/08 07:39:42;;;;;;;;;;;3.80;92.60;;;;;;5120563;27;19931;-77
2021/12/08 07:42:16;;;;;;;;;;;3.80;92.70;;;;;;5141110;27;20296;-76
2021/12/08 07:44:51;;;;;;;;;;;3.90;92.70;;;;;;5119369;27;19924;-76
2021/12/08 07:47:19;;;;;;;;;;;3.90;92.70;;;;;;5141214;27;19946;-76
2021/12/08 07:49:49;;;;;;;;;;;3.90;92.60;;;;;;5121518;27;19930;-76
2021/12/08 07:52:27;;;;;;;;;;;3.90;92.70;;;;;;5119311;27;19923;-76
2021/12/08 07:54:54;;;;;;;;;;;3.90;92.70;;;;;;5155467;27;19930;-77
2021/12/08 07:57:25;;;;;;;;;;;4.00;92.70;;;;;;5128380;27;19923;-77
2021/12/08 07:59:54;;;;;;;;;;;4.00;92.70;;;;;;5119390;27;19923;-77
2021/12/08 08:02:25;;;;;;;;;;;4.00;92.60;;;;;;5148384;27;20387;-77
2021/12/08 08:04:54;;;;;;;;;;;4.10;92.50;;;;;;5156277;27;20312;-76
2021/12/08 08:07:21;;;;;;;;;;;4.20;92.40;;;;;;5155124;27;19923;-76
2021/12/08 08:09:59;;;;;;;;;;;4.20;92.30;;;;;;5155485;27;20409;-76
2021/12/08 08:12:36;;;;;;;;;;;4.30;92.10;;;;;;5155206;27;19950;-76
2021/12/08 08:15:08;;;;;;;;;;;4.30;92.10;;;;;;5149460;27;19928;-77
2021/12/08 08:17:41;;;;;;;;;;;4.30;92.00;;;;;;5151104;27;19923;-77
2021/12/08 08:20:11;;;;;;;;;;;4.30;92.00;;;;;;5151272;27;19930;-77
2021/12/08 08:22:39;;;;;;;;;;;4.30;91.90;;;;;;5146825;27;19923;-77
2021/12/08 08:25:08;;;;;;;;;;;4.30;91.80;;;;;;5135819;27;20396;-77
2021/12/08 08:27:36;;;;;;;;;;;4.40;91.60;;;;;;5136508;27;19927;-76
2021/12/08 08:30:08;;;;;;;;;;;4.50;91.40;;;;;;5137378;27;19924;-78
2021/12/08 08:32:40;;;;;;;;;;;4.50;91.40;;;;;;5140265;27;20403;-77
2021/12/08 08:35:13;;;;;;;;;;;4.50;91.30;;;;;;5117423;27;19927;-76
2021/12/08 08:37:40;;;;;;;;;;;4.60;91.30;;;;;;5135806;27;19923;-78
2021/12/08 08:40:12;;;;;;;;;;;4.60;91.20;;;;;;5136573;27;19930;-78
2021/12/08 08:42:43;;;;;;;;;;;4.70;91.30;;;;;;5135951;27;19930;-78
2021/12/08 08:45:14;;;;;;;;;;;4.70;91.20;;;;;;5118399;27;19931;-78
2021/12/08 08:47:44;;;;;;;;;;;4.70;91.20;;;;;;5136748;27;19924;-78
2021/12/08 08:50:14;;;;;;;;;;;4.80;91.10;;;;;;5135575;27;19923;-77
2021/12/08 08:52:43;;;;;;;;;;;4.70;91.10;;;;;;5136690;27;19923;-76
2021/12/08 08:55:33;;;;;;;;;;;4.80;91.10;;;;;;5136552;27;19923;-77
2021/12/08 08:58:03;;;;;;;;;;;4.80;91.20;;;;;;5135996;27;20388;-76
2021/12/08 09:00:44;;;;;;;;;;;4.80;91.00;;;;;;5118023;27;20391;-76
2021/12/08 09:03:15;;;;;;;;;;;4.80;91.10;;;;;;5136457;27;20372;-77
2021/12/08 09:05:46;;;;;;;;;;;4.80;91.00;;;;;;5136363;27;19924;-76
2021/12/08 09:08:14;;;;;;;;;;;4.90;91.00;;;;;;5142539;27;20249;-77
2021/12/08 09:10:45;;;;;;;;;;;4.90;91.00;;;;;;5156696;27;19923;-77
2021/12/08 09:13:39;;;;;;;;;;;4.90;91.00;;;;;;5156161;27;20395;-77
2021/12/08 09:16:09;;;;;;;;;;;4.90;90.50;;;;;;5152128;27;19923;-76
2021/12/08 09:18:46;;;;;;;;;;;5.00;90.20;;;;;;5156090;27;19930;-77
2021/12/08 09:21:40;;;;;;;;;;;5.00;90.20;;;;;;5155675;27;19923;-77
2021/12/08 09:24:33;;;;;;;;;;;5.00;90.10;;;;;;5104819;27;19924;-77
2021/12/08 09:27:01;;;;;;;;;;;5.10;90.00;;;;;;5135242;27;20304;-78
2021/12/08 09:29:35;;;;;;;;;;;5.20;89.50;;;;;;5134838;27;20376;-78
2021/12/08 09:32:08;;;;;;;;;;;5.10;89.70;;;;;;5134697;27;19930;-77
2021/12/08 09:34:38;;;;;;;;;;;5.10;89.80;;;;;;5125461;27;19927;-77
2021/12/08 09:37:09;;;;;;;;;;;5.20;89.40;;;;;;5132394;27;19924;-78
2021/12/08 09:39:40;;;;;;;;;;;5.20;89.60;;;;;;5134982;27;19928;-78
2021/12/08 09:42:14;;;;;;;;;;;5.20;89.60;;;;;;5135976;27;19923;-78
2021/12/08 09:44:44;;;;;;;;;;;5.20;89.60;;;;;;5135215;27;19927;-77
2021/12/08 09:47:11;;;;;;;;;;;5.20;89.70;;;;;;5134418;27;19934;-77
2021/12/08 09:49:39;;;;;;;;;;;5.20;89.70;;;;;;5134906;27;19924;-77
2021/12/08 09:52:10;;;;;;;;;;;5.20;89.80;;;;;;5116719;27;19930;-77
2021/12/08 09:54:38;;;;;;;;;;;5.20;89.60;;;;;;5135292;27;19930;-77
2021/12/08 09:57:11;;;;;;;;;;;5.20;89.50;;;;;;5134157;27;19930;-77
2021/12/08 09:59:46;;;;;;;;;;;5.20;89.40;;;;;;5116493;27;19923;-77
2021/12/08 10:02:18;;;;;;;;;;;5.20;89.60;;;;;;5134975;27;19923;-77
2021/12/08 10:04:45;;;;;;;;;;;5.10;89.80;;;;;;5136092;27;19923;-77
2021/12/08 10:07:13;;;;;;;;;;;5.20;89.50;;;;;;5138280;27;19930;-76
2021/12/08 10:09:41;;;;;;;;;;;5.20;89.40;;;;;;5119722;27;19924;-77
2021/12/08 10:12:08;;;;;;;;;;;5.20;89.60;;;;;;5136576;27;20299;-77
2021/12/08 10:14:36;;;;;;;;;;;5.30;89.30;;;;;;5116258;27;19923;-77
2021/12/08 10:17:03;;;;;;;;;;;5.20;89.50;;;;;;5135137;27;19923;-77
2021/12/08 10:19:31;;;;;;;;;;;5.20;89.80;;;;;;5134186;27;19934;-77
2021/12/08 10:21:59;;;;;;;;;;;5.20;90.10;;;;;;5117016;27;19923;-76
2021/12/08 10:24:31;;;;;;;;;;;5.20;90.20;;;;;;5135264;27;19923;-75
2021/12/08 10:27:04;;;;;;;;;;;5.20;90.30;;;;;;5116680;27;19924;-77
2021/12/08 10:29:33;;;;;;;;;;;5.20;90.30;;;;;;5133820;27;20304;-76
2021/12/08 10:32:02;;;;;;;;;;;5.20;90.20;;;;;;5133591;27;19958;-76
2021/12/08 10:34:52;;;;;;;;;;;5.20;90.30;;;;;;5144880;27;19923;-77
2021/12/08 10:37:20;;;;;;;;;;;5.20;90.20;;;;;;5136786;27;19923;-76
2021/12/08 10:39:49;;;;;;;;;;;5.20;89.70;;;;;;5154142;27;19923;-78
2021/12/08 10:42:18;;;;;;;;;;;5.30;89.40;;;;;;5154837;27;19927;-76
2021/12/08 10:45:12;;;;;;;;;;;5.30;89.00;;;;;;5154730;27;19923;-76
2021/12/08 10:47:49;;;;;;;;;;;5.40;88.30;;;;;;5155389;27;19946;-77
2021/12/08 10:56:11;;;;;;;;;;;5.60;87.40;;;;;;5136726;27;19923;-77
2021/12/08 10:58:40;;;;;;;;;;;5.70;87.10;;;;;;5136807;27;19923;-78
2021/12/08 11:01:11;;;;;;;;;;;5.70;87.10;;;;;;5154407;27;19934;-78
2021/12/08 11:03:39;;;;;;;;;;;5.80;87.10;;;;;;5137308;27;19930;-78
2021/12/08 11:06:09;;;;;;;;;;;5.90;86.60;;;;;;5155156;27;19923;-78
2021/12/08 11:08:39;;;;;;;;;;;6.00;85.90;;;;;;5155748;27;19930;-77
2021/12/08 11:11:12;;;;;;;;;;;6.00;85.20;;;;;;5155939;27;19930;-78
2021/12/08 11:13:42;;;;;;;;;;;6.00;85.50;;;;;;5155351;27;19931;-79
2021/12/08 11:16:12;;;;;;;;;;;6.10;85.20;;;;;;5154659;27;19923;-78
2021/12/08 11:18:42;;;;;;;;;;;6.10;84.60;;;;;;5154583;27;19922;-78
2021/12/08 11:21:16;;;;;;;;;;;6.20;84.40;;;;;;5155175;27;19938;-79
2021/12/08 11:24:05;;;;;;;;;;;6.20;84.10;;;;;;5155216;27;19930;-79
2021/12/08 11:26:37;;;;;;;;;;;6.20;84.20;;;;;;5135704;27;20388;-77
2021/12/08 11:29:05;;;;;;;;;;;6.20;83.00;;;;;;5153814;27;19934;-79
2021/12/08 11:31:38;;;;;;;;;;;6.20;83.50;;;;;;5134533;27;20325;-79
2021/12/08 11:34:27;;;;;;;;;;;6.30;83.00;;;;;;5145378;27;19924;-79
2021/12/08 11:36:57;;;;;;;;;;;6.30;83.10;;;;;;5134211;27;19924;-79
2021/12/08 11:39:33;;;;;;;;;;;6.30;82.90;;;;;;5133737;28;19930;-79
2021/12/08 11:42:06;;;;;;;;;;;6.30;83.10;;;;;;5140768;27;19947;-79
2021/12/08 11:44:38;;;;;;;;;;;6.40;82.20;;;;;;5141409;27;19973;-79
2021/12/08 11:47:08;;;;;;;;;;;6.30;82.40;;;;;;5142221;27;19923;-80
2021/12/08 11:49:45;;;;;;;;;;;6.30;82.50;;;;;;5143579;27;19923;-80
2021/12/08 11:52:18;;;;;;;;;;;6.30;82.60;;;;;;5148452;27;19927;-79
2021/12/08 11:54:50;;;;;;;;;;;6.30;81.90;;;;;;5115327;28;19946;-80
2021/12/08 11:57:25;;;;;;;;;;;6.30;82.20;;;;;;5133064;28;20296;-80
2021/12/08 12:00:14;;;;;;;;;;;6.30;82.20;;;;;;5134583;27;19924;-82
2021/12/08 12:02:46;;;;;;;;;;;6.30;81.70;;;;;;5135546;28;19931;-79
2021/12/08 12:05:16;;;;;;;;;;;6.30;81.30;;;;;;5133926;27;20372;-81
2021/12/08 12:07:46;;;;;;;;;;;6.20;81.90;;;;;;5134489;28;19923;-81
2021/12/08 12:10:16;;;;;;;;;;;6.20;82.00;;;;;;5133971;27;19938;-81
2021/12/08 12:12:45;;;;;;;;;;;6.20;82.50;;;;;;5138862;27;19923;-81
2021/12/08 12:15:14;;;;;;;;;;;6.20;82.60;;;;;;5139212;27;19931;-80
2021/12/08 12:17:43;;;;;;;;;;;6.20;82.20;;;;;;5139342;27;19924;-81
2021/12/08 12:20:13;;;;;;;;;;;6.20;82.30;;;;;;5139074;27;20429;-81
2021/12/08 12:22:56;;;;;;;;;;;6.20;82.00;;;;;;5137250;27;19938;-81
2021/12/08 12:25:34;;;;;;;;;;;6.20;82.20;;;;;;5137083;27;19923;-80
2021/12/08 12:28:10;;;;;;;;;;;6.20;82.30;;;;;;5137796;27;19930;-80
2021/12/08 12:30:56;;;;;;;;;;;6.20;81.80;;;;;;5136402;27;20037;-82
2021/12/08 12:33:24;;;;;;;;;;;6.20;82.00;;;;;;5137638;27;19923;-81
2021/12/08 12:35:53;;;;;;;;;;;6.20;82.40;;;;;;5137964;27;19924;-81
2021/12/08 12:38:34;;;;;;;;;;;6.20;82.00;;;;;;5137327;27;20396;-80
2021/12/08 12:41:03;;;;;;;;;;;6.30;81.70;;;;;;5137936;27;20313;-83
2021/12/08 12:43:35;;;;;;;;;;;6.30;81.50;;;;;;5136209;27;19923;-81
2021/12/08 12:46:15;;;;;;;;;;;6.30;81.40;;;;;;5119146;27;19927;-81
2021/12/08 12:48:49;;;;;;;;;;;6.40;80.80;;;;;;5136039;27;19923;-81
2021/12/08 12:51:18;;;;;;;;;;;6.50;80.70;;;;;;5137185;27;19931;-81
2021/12/08 12:53:56;;;;;;;;;;;6.70;80.30;;;;;;5120883;27;19934;-83
2021/12/08 12:56:27;;;;;;;;;;;6.70;79.90;;;;;;5137346;27;19930;-82
2021/12/08 12:58:55;;;;;;;;;;;6.70;79.10;;;;;;5137870;27;19924;-83
2021/12/08 13:01:29;;;;;;;;;;;6.70;79.10;;;;;;5137490;27;20311;-81
2021/12/08 13:03:58;;;;;;;;;;;6.70;79.80;;;;;;5138030;27;19942;-81
2021/12/08 13:06:43;;;;;;;;;;;6.90;80.00;;;;;;5139326;27;19930;-84
2021/12/08 13:09:30;;;;;;;;;;;7.00;78.80;;;;;;5137264;27;19931;-81
2021/12/08 13:12:05;;;;;;;;;;;6.90;79.00;;;;;;5135780;27;20400;-80
2021/12/08 13:14:43;;;;;;;;;;;6.80;79.10;;;;;;5119768;27;19930;-82
2021/12/08 13:17:18;;;;;;;;;;;6.80;79.60;;;;;;5137681;27;19927;-84
2021/12/08 13:19:47;;;;;;;;;;;6.70;79.50;;;;;;5138961;27;19924;-84
2021/12/08 13:22:33;;;;;;;;;;;6.60;79.80;;;;;;5139624;27;19924;-92
2021/12/08 13:25:01;;;;;;;;;;;6.60;79.10;;;;;;5122722;27;19953;-83
2021/12/08 13:27:30;;;;;;;;;;;6.60;79.70;;;;;;5157868;27;20395;-83
2021/12/08 13:30:09;;;;;;;;;;;6.60;79.10;;;;;;5139102;27;19927;-83
2021/12/08 13:32:44;;;;;;;;;;;6.60;79.10;;;;;;5139561;27;19923;-83
2021/12/08 13:35:13;;;;;;;;;;;6.60;78.40;;;;;;5157583;27;19923;-83
2021/12/08 13:37:55;;;;;;;;;;;6.60;78.90;;;;;;5139111;27;20299;-83
2021/12/08 13:40:39;;;;;;;;;;;6.50;78.50;;;;;;5155853;27;19923;-82
2021/12/08 13:43:08;;;;;;;;;;;6.50;78.90;;;;;;5156888;27;19936;-84
2021/12/08 13:45:43;;;;;;;;;;;6.40;79.20;;;;;;5156758;27;20261;-84
2021/12/08 13:48:11;;;;;;;;;;;6.50;78.30;;;;;;5157381;27;19930;-83
2021/12/08 13:50:38;;;;;;;;;;;6.40;78.50;;;;;;5139579;27;19924;-83
2021/12/08 13:53:10;;;;;;;;;;;6.40;78.50;;;;;;5156684;27;19931;-82
2021/12/08 13:55:43;;;;;;;;;;;6.30;79.20;;;;;;5155945;27;19923;-84
2021/12/08 13:58:14;;;;;;;;;;;6.30;78.70;;;;;;5157181;27;19927;-82
2021/12/08 14:00:42;;;;;;;;;;;6.20;78.80;;;;;;5145692;27;19924;-83
2021/12/08 14:03:12;;;;;;;;;;;6.10;78.90;;;;;;5115943;27;19924;-83
2021/12/08 14:05:40;;;;;;;;;;;6.10;78.80;;;;;;5136261;27;19927;-83
2021/12/08 14:08:09;;;;;;;;;;;6.00;79.50;;;;;;5135110;27;20062;-82
2021/12/08 14:10:41;;;;;;;;;;;5.90;79.50;;;;;;5117086;27;19934;-83
2021/12/08 14:13:09;;;;;;;;;;;5.90;80.00;;;;;;5135180;27;19923;-83
2021/12/08 14:15:41;;;;;;;;;;;5.80;80.40;;;;;;5134907;27;19923;-83
2021/12/08 14:18:21;;;;;;;;;;;5.80;80.40;;;;;;5119157;27;19927;-82
2021/12/08 14:20:51;;;;;;;;;;;5.80;80.60;;;;;;5133956;27;19953;-83
2021/12/08 14:23:20;;;;;;;;;;;5.80;80.40;;;;;;5139597;27;19942;-83
2021/12/08 14:25:52;;;;;;;;;;;5.80;80.40;;;;;;5105345;27;19931;-84
2021/12/08 14:28:27;;;;;;;;;;;5.70;80.70;;;;;;5113912;27;19939;-84
2021/12/08 14:30:56;;;;;;;;;;;5.70;80.80;;;;;;5129255;27;19924;-83
2021/12/08 14:33:24;;;;;;;;;;;5.70;80.80;;;;;;5109375;27;19930;-82
2021/12/08 14:35:56;;;;;;;;;;;5.70;80.70;;;;;;5142278;27;19923;-81
2021/12/08 14:38:24;;;;;;;;;;;5.70;80.70;;;;;;5128612;27;19928;-81
2021/12/08 14:40:52;;;;;;;;;;;5.70;80.60;;;;;;5144502;27;19938;-83
2021/12/08 14:43:33;;;;;;;;;;;5.70;80.50;;;;;;5142300;27;19930;-86
2021/12/08 14:46:12;;;;;;;;;;;5.60;80.90;;;;;;5126941;27;19947;-82
2021/12/08 14:48:45;;;;;;;;;;;5.60;81.20;;;;;;5127800;27;19934;-83
2021/12/08 14:51:12;;;;;;;;;;;5.60;80.90;;;;;;5153383;27;19932;-84
2021/12/08 14:53:40;;;;;;;;;;;5.60;81.10;;;;;;5133219;27;20390;-83
2021/12/08 14:56:11;;;;;;;;;;;5.50;80.80;;;;;;5146566;27;19923;-83
2021/12/08 14:58:39;;;;;;;;;;;5.50;80.80;;;;;;5117486;27;19923;-83
2021/12/08 15:01:07;;;;;;;;;;;5.50;80.90;;;;;;5136906;27;19958;-84
2021/12/08 15:03:42;;;;;;;;;;;5.40;81.60;;;;;;5134525;27;19923;-83
2021/12/08 15:06:16;;;;;;;;;;;5.40;81.90;;;;;;5116483;27;20355;-83
2021/12/08 15:08:44;;;;;;;;;;;5.30;81.90;;;;;;5116312;28;19923;-83
2021/12/08 15:11:22;;;;;;;;;;;5.30;82.10;;;;;;5134438;27;19923;-84
2021/12/08 15:13:50;;;;;;;;;;;5.30;82.40;;;;;;5116180;28;20396;-84
2021/12/08 15:16:20;;;;;;;;;;;5.30;82.70;;;;;;5148133;27;20296;-86
2021/12/08 15:19:00;;;;;;;;;;;5.30;82.80;;;;;;5094387;27;19923;-84
2021/12/08 15:21:36;;;;;;;;;;;5.30;82.80;;;;;;5110938;27;19977;-81
2021/12/08 15:24:09;;;;;;;;;;;5.30;82.00;;;;;;5116821;28;19927;-83
2021/12/08 15:26:37;;;;;;;;;;;5.20;82.20;;;;;;5122606;27;19923;-84
2021/12/08 15:29:05;;;;;;;;;;;5.20;82.50;;;;;;5126060;27;19934;-83
2021/12/08 15:31:35;;;;;;;;;;;5.10;82.70;;;;;;5138706;27;19924;-83
2021/12/08 15:34:35;;;;;;;;;;;5.10;82.80;;;;;;5141519;27;19923;-84